Time;durP1;ratioP1;P1;durP2;ratioP2;P2;SDS_P1;SDS_P2;PMS_P1;PMS_P2;Temp;Humidity;BMP_temperature;BMP_pressure;BME280_temperature;BME280_humidity;BME280_pressure;Samples;Min_cycle;Max_cycle;Signal;HPM_P1;HPM_P2
2024/01/02 00:01:08;;;;;;;5.50;1.65;;;10.30;33.80;;;;;;7393263;19;20488;-72
2024/01/02 00:03:33;;;;;;;4.13;1.00;;;10.40;33.30;;;;;;7391608;19;19910;-72
2024/01/02 00:05:59;;;;;;;4.28;0.82;;;10.40;33.00;;;;;;7398328;19;20005;-72
2024/01/02 00:08:25;;;;;;;5.82;1.20;;;10.50;31.80;;;;;;7397535;19;19922;-71
2024/01/02 00:10:50;;;;;;;4.50;1.20;;;10.50;32.00;;;;;;7398037;19;19915;-72
2024/01/02 00:13:16;;;;;;;3.53;1.25;;;10.40;32.30;;;;;;7392095;19;19926;-72
2024/01/02 00:15:42;;;;;;;4.20;1.00;;;10.40;32.80;;;;;;7394490;19;20251;-71
2024/01/02 00:18:08;;;;;;;5.13;2.13;;;10.40;33.00;;;;;;7396498;19;19990;-71
2024/01/02 00:20:33;;;;;;;4.78;1.55;;;10.40;33.20;;;;;;7396502;19;19982;-71
2024/01/02 00:22:59;;;;;;;5.65;1.63;;;10.40;33.10;;;;;;7396666;19;19914;-72
2024/01/02 00:25:25;;;;;;;6.80;1.98;;;10.40;33.40;;;;;;7389273;19;19951;-71
2024/01/02 00:27:51;;;;;;;6.75;1.13;;;10.40;33.00;;;;;;7393786;19;19952;-71
2024/01/02 00:30:16;;;;;;;3.30;1.00;;;10.40;32.00;;;;;;7394433;19;19915;-71
2024/01/02 00:32:43;;;;;;;5.00;1.02;;;10.50;31.50;;;;;;7399956;19;19918;-70
2024/01/02 00:35:08;;;;;;;5.45;0.90;;;10.60;31.20;;;;;;7395384;19;20046;-71
2024/01/02 00:37:38;;;;;;;2.03;0.63;;;10.70;30.70;;;;;;7396890;19;19922;-71
2024/01/02 00:40:04;;;;;;;4.15;1.35;;;10.60;30.50;;;;;;7397648;19;19919;-72
2024/01/02 00:42:30;;;;;;;8.38;1.02;;;10.50;31.00;;;;;;7396662;19;19932;-71
2024/01/02 00:44:56;;;;;;;5.35;1.10;;;10.50;31.00;;;;;;7403521;19;19915;-71
2024/01/02 00:47:21;;;;;;;3.20;0.80;;;10.50;31.00;;;;;;7401739;19;19921;-70
2024/01/02 00:49:48;;;;;;;4.65;1.00;;;10.50;31.60;;;;;;7401754;19;19915;-71
2024/01/02 00:52:14;;;;;;;3.75;1.10;;;10.40;31.60;;;;;;7402823;19;19914;-72
2024/01/02 00:54:40;;;;;;;4.68;0.90;;;10.40;31.80;;;;;;7400948;19;19910;-71
2024/01/02 00:57:06;;;;;;;3.75;1.23;;;10.40;32.10;;;;;;7401054;19;19914;-72
2024/01/02 00:59:32;;;;;;;4.07;0.85;;;10.30;32.70;;;;;;7403236;19;19922;-71
2024/01/02 01:01:57;;;;;;;5.18;1.10;;;10.20;33.00;;;;;;7376129;19;19922;-72
2024/01/02 01:04:23;;;;;;;4.28;0.90;;;10.10;33.70;;;;;;7402232;19;20405;-71
2024/01/02 01:06:49;;;;;;;3.90;1.20;;;10.00;34.30;;;;;;7403534;19;19927;-71
2024/01/02 01:09:15;;;;;;;4.13;0.90;;;9.90;34.50;;;;;;7402483;19;19921;-71
2024/01/02 01:11:40;;;;;;;3.97;1.23;;;9.90;34.30;;;;;;7399959;19;19919;-71
2024/01/02 01:14:06;;;;;;;3.83;1.23;;;9.90;34.60;;;;;;7399835;19;20536;-71
2024/01/02 01:16:32;;;;;;;5.78;0.90;;;10.00;34.50;;;;;;7404003;19;19986;-71
2024/01/02 01:18:58;;;;;;;3.72;0.93;;;9.90;34.60;;;;;;7401095;19;20335;-72
2024/01/02 01:21:24;;;;;;;3.70;0.88;;;9.90;34.50;;;;;;7403943;19;19919;-72
2024/01/02 01:23:50;;;;;;;3.83;1.13;;;9.80;34.70;;;;;;7380164;19;19918;-71
2024/01/02 01:26:16;;;;;;;2.55;0.70;;;9.90;34.20;;;;;;7379197;19;19922;-72
2024/01/02 01:28:41;;;;;;;5.93;1.00;;;9.90;33.80;;;;;;7403862;19;19922;-70
2024/01/02 01:31:07;;;;;;;3.80;1.20;;;9.90;33.80;;;;;;7398254;19;19986;-71
2024/01/02 01:33:33;;;;;;;3.28;0.70;;;9.90;33.60;;;;;;7405157;19;19914;-71
2024/01/02 01:35:59;;;;;;;5.40;1.10;;;10.00;33.50;;;;;;7398275;19;19914;-72
2024/01/02 01:38:24;;;;;;;4.78;0.70;;;9.90;33.50;;;;;;7398564;19;19926;-71
2024/01/02 01:40:50;;;;;;;4.80;1.40;;;10.00;33.30;;;;;;7401558;19;20532;-72
2024/01/02 01:43:16;;;;;;;3.78;0.73;;;9.90;33.70;;;;;;7397781;19;19921;-72
2024/01/02 01:45:42;;;;;;;3.17;0.73;;;9.80;34.20;;;;;;7398769;19;19918;-71
2024/01/02 01:48:09;;;;;;;5.10;0.90;;;9.90;34.10;;;;;;7401531;19;19914;-71
2024/01/02 01:50:36;;;;;;;6.15;1.25;;;9.80;34.00;;;;;;7403835;19;19911;-71
2024/01/02 01:53:03;;;;;;;3.30;0.90;;;9.90;33.50;;;;;;7402264;19;20331;-71
2024/01/02 01:55:29;;;;;;;4.35;0.82;;;10.00;32.50;;;;;;7394844;19;20319;-71
2024/01/02 01:57:55;;;;;;;5.32;0.90;;;10.00;32.30;;;;;;7401335;19;19922;-71
2024/01/02 02:00:21;;;;;;;3.60;0.52;;;10.10;31.70;;;;;;7403048;19;19926;-71
2024/01/02 02:02:47;;;;;;;3.40;0.93;;;10.00;32.10;;;;;;7402757;19;19922;-72
2024/01/02 02:05:13;;;;;;;3.50;0.80;;;10.00;31.80;;;;;;7401843;19;19914;-71
2024/01/02 02:07:40;;;;;;;4.57;0.65;;;10.00;31.70;;;;;;7402309;19;19990;-71
2024/01/02 02:10:08;;;;;;;4.22;1.02;;;10.00;31.50;;;;;;7401960;19;19918;-71
2024/01/02 02:12:34;;;;;;;3.35;0.82;;;10.00;31.60;;;;;;7401006;19;19919;-71
2024/01/02 02:15:00;;;;;;;1.83;0.40;;;9.90;31.80;;;;;;7400614;19;19949;-71
2024/01/02 02:17:29;;;;;;;3.38;1.20;;;10.00;31.50;;;;;;7401178;19;20485;-71
2024/01/02 02:19:56;;;;;;;2.80;0.70;;;9.90;31.70;;;;;;7401058;19;19921;-71
2024/01/02 02:22:34;;;;;;;2.42;0.70;;;10.00;30.70;;;;;;7397215;19;19934;-71
2024/01/02 02:25:05;;;;;;;3.22;0.52;;;10.10;30.10;;;;;;7403537;19;19914;-71
2024/01/02 02:27:32;;;;;;;1.92;0.43;;;10.10;29.60;;;;;;7401634;19;19918;-72
2024/01/02 02:29:58;;;;;;;5.32;0.77;;;10.30;28.60;;;;;;7403620;19;19919;-71
2024/01/02 02:32:24;;;;;;;2.03;0.32;;;10.40;28.00;;;;;;7396815;19;19923;-71
2024/01/02 02:34:50;;;;;;;2.95;0.63;;;10.40;27.70;;;;;;7402843;19;19923;-70
2024/01/02 02:37:16;;;;;;;2.65;0.60;;;10.40;27.60;;;;;;7399433;19;20552;-71
2024/01/02 02:39:42;;;;;;;2.10;0.30;;;10.60;26.30;;;;;;7401714;19;19941;-70
2024/01/02 02:42:08;;;;;;;4.78;1.02;;;10.80;24.70;;;;;;7399494;19;19915;-70
2024/01/02 02:44:34;;;;;;;3.00;0.57;;;10.90;23.50;;;;;;7400458;19;20710;-70
2024/01/02 02:47:00;;;;;;;2.92;0.40;;;10.80;23.30;;;;;;7402254;19;19918;-71
2024/01/02 02:49:27;;;;;;;2.35;0.50;;;10.70;23.40;;;;;;7400017;19;19930;-70
2024/01/02 02:51:53;;;;;;;3.05;0.70;;;10.70;23.40;;;;;;7403740;19;19932;-71
2024/01/02 02:54:18;;;;;;;2.85;0.70;;;10.60;24.00;;;;;;7398074;19;19914;-71
2024/01/02 02:56:45;;;;;;;5.18;0.85;;;10.50;24.60;;;;;;7400053;19;19922;-71
2024/01/02 02:59:11;;;;;;;2.80;0.50;;;10.30;25.10;;;;;;7397598;19;19922;-71
2024/01/02 03:01:37;;;;;;;1.48;0.40;;;10.30;25.10;;;;;;7401324;19;20276;-72
2024/01/02 03:04:04;;;;;;;1.60;0.50;;;10.40;23.90;;;;;;7398281;19;19922;-71
2024/01/02 03:06:30;;;;;;;3.63;0.60;;;10.40;23.80;;;;;;7399331;19;19919;-71
2024/01/02 03:08:55;;;;;;;3.58;1.00;;;10.30;23.70;;;;;;7400988;19;19925;-71
2024/01/02 03:11:21;;;;;;;3.13;0.73;;;10.40;23.10;;;;;;7398756;19;19943;-71
2024/01/02 03:13:50;;;;;;;2.65;0.60;;;10.30;23.10;;;;;;7400766;19;19922;-72
2024/01/02 03:16:16;;;;;;;2.95;0.45;;;10.30;23.40;;;;;;7397340;19;19926;-71
2024/01/02 03:18:41;;;;;;;3.92;0.57;;;10.30;23.00;;;;;;7400664;19;19918;-71
2024/01/02 03:21:13;;;;;;;3.17;0.60;;;10.60;21.50;;;;;;7396808;19;19922;-70
2024/01/02 03:23:39;;;;;;;2.00;0.50;;;10.40;22.20;;;;;;7399088;19;19918;-72
2024/01/02 03:26:05;;;;;;;2.63;0.60;;;10.30;22.30;;;;;;7398709;19;20331;-71
2024/01/02 03:28:31;;;;;;;2.65;0.70;;;10.20;22.80;;;;;;7400741;19;20309;-71
2024/01/02 03:30:57;;;;;;;2.75;0.65;;;10.10;23.40;;;;;;7398892;19;19986;-71
2024/01/02 03:33:23;;;;;;;2.78;0.70;;;10.00;23.90;;;;;;7396097;19;20330;-71
2024/01/02 03:35:49;;;;;;;3.13;0.60;;;9.90;24.30;;;;;;7397897;19;19922;-71
2024/01/02 03:38:15;;;;;;;3.85;0.75;;;9.90;23.90;;;;;;7399285;19;19915;-70
2024/01/02 03:40:41;;;;;;;4.97;0.65;;;9.90;23.70;;;;;;7399159;19;19929;-71
2024/01/02 03:43:07;;;;;;;2.47;0.50;;;9.90;23.80;;;;;;7397079;19;19978;-70
2024/01/02 03:45:33;;;;;;;3.25;0.57;;;9.90;23.30;;;;;;7395555;19;20334;-71
2024/01/02 03:48:00;;;;;;;1.58;0.32;;;10.00;22.90;;;;;;7397520;19;19945;-71
2024/01/02 03:50:26;;;;;;;2.05;0.50;;;9.90;22.80;;;;;;7394899;19;19918;-71
2024/01/02 03:52:52;;;;;;;2.60;0.77;;;10.10;22.00;;;;;;7399998;19;20508;-71
2024/01/02 03:55:18;;;;;;;3.15;0.55;;;10.10;21.50;;;;;;7396356;19;19930;-72
2024/01/02 03:57:44;;;;;;;1.40;0.32;;;10.10;21.60;;;;;;7399753;19;19910;-71
2024/01/02 04:00:10;;;;;;;2.35;0.50;;;10.30;21.20;;;;;;7395567;19;19919;-71
2024/01/02 04:02:37;;;;;;;2.17;0.38;;;10.20;21.30;;;;;;7398860;19;19997;-71
2024/01/02 04:05:03;;;;;;;1.67;0.40;;;10.30;21.20;;;;;;7397449;19;19918;-71
2024/01/02 04:07:29;;;;;;;2.33;0.65;;;10.30;21.20;;;;;;7398258;19;19914;-71
2024/01/02 04:09:56;;;;;;;1.73;0.50;;;10.30;21.40;;;;;;7397068;19;19937;-70
2024/01/02 04:12:21;;;;;;;3.97;0.57;;;10.20;21.30;;;;;;7398455;19;19987;-71
2024/01/02 04:14:47;;;;;;;2.08;0.60;;;10.20;21.30;;;;;;7395558;19;19918;-71
2024/01/02 04:17:14;;;;;;;2.78;0.70;;;10.20;21.60;;;;;;7396914;19;19919;-72
2024/01/02 04:19:39;;;;;;;2.65;0.70;;;10.10;21.80;;;;;;7396081;19;19921;-71
2024/01/02 04:22:05;;;;;;;1.83;0.43;;;10.00;21.90;;;;;;7395713;19;19907;-71
2024/01/02 04:24:31;;;;;;;1.67;0.40;;;10.00;22.10;;;;;;7397155;19;19935;-71
2024/01/02 04:26:57;;;;;;;4.00;0.70;;;10.00;22.30;;;;;;7396108;19;19931;-70
2024/01/02 04:29:22;;;;;;;2.25;0.50;;;10.00;22.30;;;;;;7395179;19;19945;-70
2024/01/02 04:31:48;;;;;;;2.65;0.80;;;10.00;22.20;;;;;;7397984;19;19947;-71
2024/01/02 04:34:14;;;;;;;3.72;0.80;;;10.00;22.30;;;;;;7396866;19;20272;-70
2024/01/02 04:36:44;;;;;;;2.45;0.30;;;10.00;22.10;;;;;;7396078;19;19951;-71
2024/01/02 04:39:10;;;;;;;2.50;0.50;;;10.20;21.40;;;;;;7394646;19;19914;-71
2024/01/02 04:41:36;;;;;;;2.60;0.45;;;10.20;21.30;;;;;;7391762;19;19914;-71
2024/01/02 04:44:01;;;;;;;1.63;0.43;;;10.20;21.00;;;;;;7375455;19;19921;-71
2024/01/02 04:46:30;;;;;;;2.50;0.60;;;10.30;20.90;;;;;;7392955;19;19918;-72
2024/01/02 04:48:56;;;;;;;3.08;0.68;;;10.40;20.60;;;;;;7398568;19;19926;-70
2024/01/02 04:51:22;;;;;;;1.00;0.40;;;10.40;20.70;;;;;;7394567;19;19911;-71
2024/01/02 04:53:47;;;;;;;5.18;0.43;;;10.50;20.40;;;;;;7395653;19;20382;-70
2024/01/02 04:56:14;;;;;;;3.83;0.90;;;10.40;20.50;;;;;;7392137;19;19922;-71
2024/01/02 04:58:39;;;;;;;4.05;0.57;;;10.40;20.60;;;;;;7395168;19;19922;-71
2024/01/02 05:01:05;;;;;;;1.70;0.30;;;10.40;20.70;;;;;;7391554;19;19907;-70
2024/01/02 05:03:31;;;;;;;2.30;0.40;;;10.40;20.60;;;;;;7395972;19;19915;-71
2024/01/02 05:05:57;;;;;;;2.05;0.43;;;10.50;20.40;;;;;;7393887;19;19974;-71
2024/01/02 05:08:23;;;;;;;3.10;0.60;;;10.50;20.20;;;;;;7395593;19;19938;-72
2024/01/02 05:10:48;;;;;;;3.80;0.52;;;10.60;20.10;;;;;;7394902;19;19922;-71
2024/01/02 05:13:14;;;;;;;2.50;0.50;;;10.60;19.70;;;;;;7394889;19;19929;-71
2024/01/02 05:15:40;;;;;;;1.65;0.43;;;10.60;19.80;;;;;;7395834;19;20525;-70
2024/01/02 05:18:06;;;;;;;3.45;0.50;;;10.60;19.80;;;;;;7391293;19;19907;-72
2024/01/02 05:20:33;;;;;;;1.63;0.40;;;10.60;19.90;;;;;;7395485;19;19950;-71
2024/01/02 05:23:03;;;;;;;4.00;0.60;;;10.60;19.90;;;;;;7396677;19;19926;-71
2024/01/02 05:25:29;;;;;;;1.50;0.40;;;10.70;19.60;;;;;;7395380;19;19994;-71
2024/01/02 05:27:55;;;;;;;2.03;0.50;;;10.70;19.40;;;;;;7396581;19;20354;-71
2024/01/02 05:30:21;;;;;;;3.13;0.98;;;10.70;19.50;;;;;;7391206;19;19922;-72
2024/01/02 05:32:47;;;;;;;2.50;0.50;;;10.70;19.60;;;;;;7404812;19;19917;-71
2024/01/02 05:35:12;;;;;;;3.35;0.60;;;10.80;19.40;;;;;;7402614;19;19926;-72
2024/01/02 05:37:38;;;;;;;2.38;0.50;;;10.70;19.30;;;;;;7404532;19;19931;-71
2024/01/02 05:40:04;;;;;;;1.55;0.45;;;10.70;19.00;;;;;;7398350;19;19928;-72
2024/01/02 05:42:30;;;;;;;2.90;0.82;;;10.90;18.80;;;;;;7402733;19;19925;-70
2024/01/02 05:44:56;;;;;;;3.22;0.40;;;10.70;19.00;;;;;;7401445;19;19923;-71
2024/01/02 05:47:21;;;;;;;3.92;0.70;;;10.70;19.60;;;;;;7401958;19;19915;-71
2024/01/02 05:49:47;;;;;;;2.75;0.60;;;10.60;19.50;;;;;;7401422;19;19945;-72
2024/01/02 05:52:13;;;;;;;3.85;0.70;;;10.50;19.80;;;;;;7398932;19;19926;-71
2024/01/02 05:54:39;;;;;;;1.92;0.30;;;10.30;20.80;;;;;;7399250;19;19918;-72
2024/01/02 05:57:04;;;;;;;2.05;0.40;;;10.20;21.40;;;;;;7400610;19;19925;-71
2024/01/02 05:59:30;;;;;;;1.35;0.50;;;10.00;22.00;;;;;;7400922;19;19918;-71
2024/01/02 06:01:56;;;;;;;3.47;0.63;;;9.90;22.90;;;;;;7401172;19;19915;-72
2024/01/02 06:04:21;;;;;;;2.38;0.38;;;9.90;22.60;;;;;;7399071;19;21018;-71
2024/01/02 06:06:47;;;;;;;2.78;0.60;;;9.90;22.70;;;;;;7403806;19;21191;-72
2024/01/02 06:09:13;;;;;;;2.97;0.50;;;9.80;22.90;;;;;;7399379;19;19925;-73
2024/01/02 06:11:38;;;;;;;2.42;0.50;;;9.90;22.60;;;;;;7403475;19;19939;-72
2024/01/02 06:14:04;;;;;;;4.10;1.00;;;10.00;22.30;;;;;;7397705;19;19914;-71
2024/01/02 06:16:30;;;;;;;3.03;0.60;;;10.00;22.40;;;;;;7403887;19;19957;-72
2024/01/02 06:18:56;;;;;;;2.80;0.57;;;10.00;22.70;;;;;;7400758;19;19974;-71
2024/01/02 06:21:21;;;;;;;3.08;0.68;;;10.00;22.60;;;;;;7395813;19;19914;-71
2024/01/02 06:23:47;;;;;;;2.83;0.57;;;10.00;22.60;;;;;;7396287;19;19918;-72
2024/01/02 06:26:13;;;;;;;3.40;0.77;;;10.10;22.20;;;;;;7393834;19;19918;-71
2024/01/02 06:28:38;;;;;;;2.53;0.80;;;10.10;22.00;;;;;;7401997;19;19918;-71
2024/01/02 06:31:09;;;;;;;2.47;0.90;;;10.20;22.10;;;;;;7401555;19;19926;-72
2024/01/02 06:33:34;;;;;;;3.30;0.45;;;10.20;22.30;;;;;;7401669;19;19938;-72
2024/01/02 06:36:00;;;;;;;4.78;0.80;;;10.20;22.20;;;;;;7403651;19;19918;-71
2024/01/02 06:38:26;;;;;;;2.70;0.70;;;10.20;22.30;;;;;;7378026;19;20327;-72
2024/01/02 06:40:53;;;;;;;2.42;0.55;;;10.20;22.10;;;;;;7400908;19;20349;-71
2024/01/02 06:43:18;;;;;;;2.78;0.50;;;10.30;22.00;;;;;;7399434;19;20035;-71
2024/01/02 06:45:44;;;;;;;4.88;0.90;;;10.30;21.60;;;;;;7398908;19;19946;-72
2024/01/02 06:48:10;;;;;;;2.42;0.82;;;10.30;21.10;;;;;;7399499;19;19918;-72
2024/01/02 06:50:36;;;;;;;3.25;0.57;;;10.40;20.80;;;;;;7401715;19;19970;-72
2024/01/02 06:53:02;;;;;;;4.22;0.50;;;10.40;20.80;;;;;;7400979;19;19919;-73
2024/01/02 06:55:28;;;;;;;4.35;0.50;;;10.50;20.70;;;;;;7396860;19;19914;-72
2024/01/02 06:57:53;;;;;;;4.07;1.55;;;10.40;20.90;;;;;;7401909;19;19925;-72
2024/01/02 07:00:19;;;;;;;3.10;0.82;;;10.40;21.50;;;;;;7398599;19;19915;-72
2024/01/02 07:02:45;;;;;;;4.72;0.73;;;10.30;22.00;;;;;;7399356;19;19950;-71
2024/01/02 07:05:14;;;;;;;4.63;1.20;;;10.20;22.30;;;;;;7398176;19;19918;-72
2024/01/02 07:07:43;;;;;;;14.90;1.25;;;10.30;22.30;;;;;;7400858;19;20405;-72
2024/01/02 07:10:08;;;;;;;3.13;0.73;;;10.20;22.70;;;;;;7399429;19;19943;-71
2024/01/02 07:12:35;;;;;;;2.38;0.50;;;10.20;22.80;;;;;;7401772;19;19914;-72
2024/01/02 07:15:02;;;;;;;4.40;1.08;;;10.20;23.20;;;;;;7401358;19;19910;-72
2024/01/02 07:17:28;;;;;;;3.08;0.68;;;10.10;23.80;;;;;;7401457;19;19929;-72
2024/01/02 07:19:54;;;;;;;2.90;0.82;;;10.00;24.10;;;;;;7402048;19;19914;-72
2024/01/02 07:22:20;;;;;;;3.00;0.80;;;10.00;24.30;;;;;;7398630;19;20014;-72
2024/01/02 07:24:46;;;;;;;4.65;0.82;;;10.00;24.40;;;;;;7401736;19;19918;-72
2024/01/02 07:27:12;;;;;;;5.13;0.90;;;10.00;24.50;;;;;;7397515;19;19917;-71
2024/01/02 07:29:37;;;;;;;3.15;0.75;;;10.00;24.30;;;;;;7399354;19;20322;-71
2024/01/02 07:32:03;;;;;;;2.40;0.82;;;10.10;23.80;;;;;;7374717;19;20550;-72
2024/01/02 07:34:29;;;;;;;4.10;0.93;;;10.30;22.60;;;;;;7404061;19;20757;-73
2024/01/02 07:36:55;;;;;;;3.38;0.70;;;10.60;21.00;;;;;;7395645;19;19921;-72
2024/01/02 07:39:21;;;;;;;2.47;0.70;;;10.70;20.40;;;;;;7399165;19;19929;-72
2024/01/02 07:41:46;;;;;;;3.28;0.60;;;10.70;20.40;;;;;;7396525;19;19921;-72
2024/01/02 07:44:12;;;;;;;4.90;1.02;;;10.70;20.70;;;;;;7398689;19;19919;-72
2024/01/02 07:46:38;;;;;;;3.33;0.63;;;10.60;21.00;;;;;;7397550;19;19931;-71
2024/01/02 07:49:03;;;;;;;5.65;1.10;;;10.60;21.20;;;;;;7399712;19;20312;-73
2024/01/02 07:51:29;;;;;;;4.65;0.90;;;10.50;21.00;;;;;;7399342;19;20034;-72
2024/01/02 07:53:55;;;;;;;4.22;0.90;;;10.80;20.10;;;;;;7403064;19;19959;-72
2024/01/02 07:56:21;;;;;;;2.47;0.70;;;10.80;19.90;;;;;;7394943;19;20914;-72
2024/01/02 07:58:47;;;;;;;3.47;0.77;;;10.70;20.20;;;;;;7401261;19;19979;-71
2024/01/02 08:01:13;;;;;;;4.40;0.98;;;10.70;20.20;;;;;;7397213;19;19925;-71
2024/01/02 08:03:39;;;;;;;4.07;0.57;;;10.70;20.50;;;;;;7399790;19;19923;-73
2024/01/02 08:06:05;;;;;;;2.80;0.90;;;10.90;20.00;;;;;;7398467;19;20275;-72
2024/01/02 08:08:31;;;;;;;4.95;1.20;;;10.90;19.60;;;;;;7399669;19;19907;-72
2024/01/02 08:10:56;;;;;;;6.25;1.33;;;11.00;19.50;;;;;;7395507;19;19922;-73
2024/01/02 08:13:22;;;;;;;5.25;1.20;;;11.00;19.60;;;;;;7394724;19;19991;-72
2024/01/02 08:15:48;;;;;;;4.63;1.20;;;11.10;19.60;;;;;;7397971;19;19914;-73
2024/01/02 08:18:15;;;;;;;5.82;1.50;;;11.10;19.70;;;;;;7398324;19;19918;-73
2024/01/02 08:20:40;;;;;;;;;;;11.10;20.10;;;;;;7399021;19;19921;-72
2024/01/02 08:23:07;;;;;;;4.55;1.10;;;11.80;19.50;;;;;;7396825;19;20462;-72
2024/01/02 08:25:33;;;;;;;6.10;1.27;;;12.10;17.80;;;;;;7395846;19;19914;-72
2024/01/02 08:27:59;;;;;;;4.22;0.95;;;12.00;17.30;;;;;;7399439;19;20002;-72
2024/01/02 08:30:25;;;;;;;4.15;1.20;;;13.00;15.90;;;;;;7394472;19;19914;-73
2024/01/02 08:32:51;;;;;;;4.20;1.00;;;13.80;14.00;;;;;;7399464;19;20342;-73
2024/01/02 08:35:17;;;;;;;3.92;1.00;;;13.50;13.20;;;;;;7399150;19;20304;-73
2024/01/02 08:37:43;;;;;;;4.68;1.00;;;13.70;12.30;;;;;;7398675;19;19941;-71
2024/01/02 08:40:11;;;;;;;4.05;1.13;;;14.20;11.50;;;;;;7393224;19;19915;-73
2024/01/02 08:42:37;;;;;;;3.30;1.00;;;14.20;10.80;;;;;;7403821;19;19925;-72
2024/01/02 08:45:06;;;;;;;4.13;1.02;;;13.60;11.40;;;;;;7399998;19;19939;-74
2024/01/02 08:47:33;;;;;;;3.72;0.85;;;13.50;11.60;;;;;;7398203;19;19923;-73
2024/01/02 08:49:59;;;;;;;3.53;0.93;;;13.50;11.50;;;;;;7396617;19;19950;-72
2024/01/02 08:52:25;;;;;;;4.13;0.90;;;13.10;11.50;;;;;;7396081;19;19914;-73
2024/01/02 08:54:51;;;;;;;3.33;0.90;;;12.80;12.40;;;;;;7396975;19;19918;-73
2024/01/02 08:57:16;;;;;;;3.05;0.90;;;12.70;13.00;;;;;;7397292;19;19922;-73
2024/01/02 08:59:42;;;;;;;4.10;0.85;;;12.60;13.20;;;;;;7399282;19;20500;-73
2024/01/02 09:02:08;;;;;;;3.15;0.88;;;12.60;13.10;;;;;;7396894;19;19926;-72
2024/01/02 09:04:34;;;;;;;4.00;1.08;;;12.70;12.80;;;;;;7399135;19;19936;-72
2024/01/02 09:07:00;;;;;;;3.55;1.27;;;12.80;12.60;;;;;;7404443;19;20365;-73
2024/01/02 09:09:25;;;;;;;5.93;0.80;;;12.90;12.40;;;;;;7399156;19;19922;-71
2024/01/02 09:11:51;;;;;;;4.40;1.10;;;12.90;11.80;;;;;;7404156;19;19979;-72
2024/01/02 09:14:17;;;;;;;6.28;1.00;;;13.20;11.80;;;;;;7402748;19;19930;-72
2024/01/02 09:16:45;;;;;;;2.95;0.70;;;13.20;11.30;;;;;;7403138;19;19921;-72
2024/01/02 09:19:11;;;;;;;6.20;1.30;;;13.10;11.10;;;;;;7403739;19;19915;-72
2024/01/02 09:21:37;;;;;;;2.33;0.80;;;13.10;11.50;;;;;;7382154;19;19919;-72
2024/01/02 09:24:03;;;;;;;2.78;0.85;;;12.90;11.10;;;;;;7403665;19;19937;-73
2024/01/02 09:26:30;;;;;;;3.00;1.05;;;12.80;11.30;;;;;;7403309;19;19925;-72
2024/01/02 09:28:56;;;;;;;3.65;1.05;;;12.90;11.10;;;;;;7406538;19;19922;-73
2024/01/02 09:31:25;;;;;;;4.65;1.05;;;13.00;11.10;;;;;;7401511;19;19930;-73
2024/01/02 09:33:51;;;;;;;3.05;1.27;;;13.50;10.00;;;;;;7402547;19;19914;-72
2024/01/02 09:36:18;;;;;;;4.55;1.15;;;14.20;9.00;;;;;;7402395;19;19919;-73
2024/01/02 09:38:44;;;;;;;4.35;1.08;;;14.50;8.00;;;;;;7404762;19;19945;-72
2024/01/02 09:41:38;;;;;;;4.53;1.20;;;14.70;7.30;;;;;;7382604;19;19934;-74
2024/01/02 09:44:13;;;;;;;4.25;1.55;;;15.10;7.10;;;;;;7405860;19;19921;-72
2024/01/02 09:46:55;;;;;;;5.15;1.38;;;15.10;6.20;;;;;;7402369;19;19915;-72
2024/01/02 09:49:47;;;;;;;3.35;1.10;;;15.30;6.10;;;;;;7400297;19;19911;-73
2024/01/02 09:52:16;;;;;;;3.20;1.10;;;15.60;4.70;;;;;;7376582;19;19989;-73
2024/01/02 09:55:10;;;;;;;5.57;1.40;;;15.80;4.30;;;;;;7402590;19;19970;-73
2024/01/02 09:58:12;;;;;;;3.88;1.30;;;16.40;3.00;;;;;;7398694;19;19918;-73
2024/01/02 10:01:16;;;;;;;4.57;1.08;;;16.90;2.00;;;;;;7402271;19;20414;-72
2024/01/02 10:04:00;;;;;;;6.13;1.40;;;16.90;1.00;;;;;;7400621;19;19918;-72
2024/01/02 10:06:41;;;;;;;4.53;1.30;;;16.70;1.00;;;;;;7403929;19;19915;-72
2024/01/02 10:09:28;;;;;;;4.85;1.25;;;16.70;1.00;;;;;;7400714;19;19931;-72
2024/01/02 10:12:32;;;;;;;4.43;1.42;;;16.50;1.00;;;;;;7401360;19;19929;-72
2024/01/02 10:15:13;;;;;;;5.80;1.65;;;16.60;1.00;;;;;;7398509;19;19918;-73
2024/01/02 10:17:48;;;;;;;3.42;1.20;;;16.40;1.00;;;;;;7395883;19;19927;-72
2024/01/02 10:20:36;;;;;;;3.55;0.98;;;16.30;1.00;;;;;;7396810;19;19933;-72
2024/01/02 10:23:22;;;;;;;3.92;1.48;;;16.00;1.00;;;;;;7401689;19;19926;-72
2024/01/02 10:25:54;;;;;;;4.75;1.20;;;15.90;1.00;;;;;;7398493;19;19918;-71
2024/01/02 10:28:28;;;;;;;7.50;1.40;;;16.40;1.00;;;;;;7401934;19;20045;-72
2024/01/02 10:31:29;;;;;;;4.85;1.55;;;17.20;1.00;;;;;;7398970;19;19919;-73
2024/01/02 10:34:04;;;;;;;4.70;1.63;;;17.40;1.00;;;;;;7397876;19;20303;-73
2024/01/02 10:36:35;;;;;;;5.72;1.45;;;17.30;1.00;;;;;;7401162;19;19925;-73
2024/01/02 10:39:16;;;;;;;6.43;1.55;;;17.80;1.00;;;;;;7405386;19;19914;-71
2024/01/02 10:42:06;;;;;;;5.20;1.70;;;18.00;1.00;;;;;;7402908;19;19911;-72
2024/01/02 10:44:48;;;;;;;5.28;1.40;;;18.20;1.00;;;;;;7400838;19;20546;-73
2024/01/02 10:47:52;;;;;;;5.53;1.48;;;18.80;1.00;;;;;;7399237;19;20679;-72
2024/01/02 10:50:27;;;;;;;6.30;1.95;;;18.30;1.00;;;;;;7377377;19;20061;-73
2024/01/02 10:53:12;;;;;;;15.35;6.63;;;18.20;1.00;;;;;;7402294;19;20347;-73
2024/01/02 10:55:49;;;;;;;20.98;7.05;;;16.60;1.10;;;;;;7400124;19;19934;-71
2024/01/02 10:58:22;;;;;;;15.18;5.45;;;17.40;1.80;;;;;;7402084;19;20252;-72
2024/01/02 11:01:10;;;;;;;12.85;4.80;;;17.20;1.60;;;;;;7401698;19;19986;-73
2024/01/02 11:04:14;;;;;;;9.40;3.70;;;16.60;2.50;;;;;;7402048;19;20263;-72
2024/01/02 11:07:04;;;;;;;9.63;3.50;;;15.90;3.30;;;;;;7402417;19;19925;-73
2024/01/02 11:09:33;;;;;;;9.63;2.72;;;16.00;3.00;;;;;;7403062;19;19975;-72
2024/01/02 11:12:00;;;;;;;11.65;2.95;;;16.60;2.30;;;;;;7403094;19;19922;-72
2024/01/02 11:14:28;;;;;;;5.20;2.45;;;16.80;1.80;;;;;;7402552;19;19978;-73
2024/01/02 11:16:56;;;;;;;8.18;1.67;;;17.30;1.00;;;;;;7403375;19;19941;-73
2024/01/02 11:19:31;;;;;;;4.15;1.80;;;16.80;1.00;;;;;;7402308;19;19939;-72
2024/01/02 11:22:13;;;;;;;4.60;2.00;;;17.80;1.00;;;;;;7403774;19;19926;-72
2024/01/02 11:24:55;;;;;;;5.45;1.60;;;18.00;1.00;;;;;;7401745;19;19990;-73
2024/01/02 11:27:23;;;;;;;6.78;1.50;;;17.70;1.00;;;;;;7400007;19;19946;-72
2024/01/02 11:29:51;;;;;;;4.50;1.40;;;16.80;1.00;;;;;;7404851;19;20450;-73
2024/01/02 11:32:22;;;;;;;5.72;1.35;;;16.70;1.00;;;;;;7401832;19;19923;-74
2024/01/02 11:35:00;;;;;;;5.82;1.40;;;16.60;1.00;;;;;;7400925;19;19914;-73
2024/01/02 11:37:31;;;;;;;7.15;1.30;;;16.80;1.00;;;;;;7400337;19;20010;-73
2024/01/02 11:40:15;;;;;;;5.75;1.60;;;16.80;1.00;;;;;;7399574;19;19918;-72
2024/01/02 11:43:09;;;;;;;4.30;1.10;;;16.60;1.00;;;;;;7398063;19;19922;-72
2024/01/02 11:45:37;;;;;;;5.72;1.58;;;16.70;1.00;;;;;;7402366;19;19918;-73
2024/01/02 11:48:26;;;;;;;3.35;1.20;;;16.60;1.00;;;;;;7397185;19;19931;-72
2024/01/02 11:50:55;;;;;;;8.65;1.70;;;17.00;1.00;;;;;;7400393;19;19918;-73
2024/01/02 11:53:45;;;;;;;6.53;1.40;;;16.70;1.00;;;;;;7399706;19;20345;-72
2024/01/02 11:56:13;;;;;;;6.07;1.75;;;16.80;1.00;;;;;;7401318;19;19935;-72
2024/01/02 11:58:56;;;;;;;6.68;1.52;;;16.70;1.00;;;;;;7399869;19;20342;-72
2024/01/02 12:01:40;;;;;;;5.88;2.00;;;16.60;1.00;;;;;;7402122;19;21275;-73
2024/01/02 12:04:13;;;;;;;5.68;1.45;;;16.50;1.00;;;;;;7398470;19;19923;-72
2024/01/02 12:06:47;;;;;;;4.63;1.35;;;16.50;1.00;;;;;;7401663;19;19919;-73
2024/01/02 12:09:18;;;;;;;5.40;1.27;;;16.30;1.00;;;;;;7399931;19;19918;-72
2024/01/02 12:11:56;;;;;;;5.57;1.65;;;16.30;1.00;;;;;;7401809;19;19910;-71
2024/01/02 12:14:48;;;;;;;6.95;1.48;;;16.40;1.00;;;;;;7401832;19;20001;-72
2024/01/02 12:17:18;;;;;;;6.50;1.60;;;16.40;1.00;;;;;;7399709;19;19974;-74
2024/01/02 12:19:49;;;;;;;5.63;1.40;;;16.80;1.00;;;;;;7397156;19;19953;-72
2024/01/02 12:22:14;;;;;;;4.82;1.52;;;17.20;1.00;;;;;;7399298;19;19957;-72
2024/01/02 12:24:42;;;;;;;5.13;1.38;;;16.90;1.00;;;;;;7399396;19;19922;-73
2024/01/02 12:27:09;;;;;;;5.25;1.20;;;16.50;1.00;;;;;;7396664;19;19919;-72
2024/01/02 12:29:55;;;;;;;8.02;1.33;;;16.20;1.00;;;;;;7399305;19;19911;-72
2024/01/02 12:32:27;;;;;;;7.38;1.48;;;16.10;1.00;;;;;;7400519;19;19933;-73
2024/01/02 12:35:25;;;;;;;6.72;1.60;;;15.90;1.00;;;;;;7399464;19;19994;-72
2024/01/02 12:38:06;;;;;;;5.32;1.60;;;15.90;1.00;;;;;;7397487;19;19918;-73
2024/01/02 12:40:35;;;;;;;4.85;1.20;;;15.80;1.00;;;;;;7402102;19;19919;-73
2024/01/02 12:43:06;;;;;;;4.63;1.50;;;15.80;1.00;;;;;;7408138;19;19947;-72
2024/01/02 12:45:34;;;;;;;6.85;2.35;;;15.60;1.00;;;;;;7407301;19;19935;-73
2024/01/02 12:48:05;;;;;;;6.60;1.92;;;15.50;3.90;;;;;;7405382;19;19926;-73
2024/01/02 12:50:34;;;;;;;7.75;1.95;;;15.30;4.00;;;;;;7407788;19;19923;-72
2024/01/02 12:53:09;;;;;;;8.05;1.60;;;15.40;2.20;;;;;;7408447;19;19979;-73
2024/01/02 12:55:51;;;;;;;4.78;1.13;;;15.40;1.70;;;;;;7400954;19;19930;-72
2024/01/02 12:58:19;;;;;;;5.10;1.38;;;15.50;1.10;;;;;;7404364;19;20364;-72
2024/01/02 13:00:46;;;;;;;7.38;1.80;;;15.30;1.50;;;;;;7402805;19;20331;-73